sensor_id;sensor_type;location;lat;lon;timestamp;pressure;altitude;pressure_sealevel;temperature;humidity
76022;BME280;64718;52.124;6.226;2023-04-09T00:01:33;102642.31;;;8.59;100.00
76022;BME280;64718;52.124;6.226;2023-04-09T00:04:00;102645.78;;;8.57;100.00
76022;BME280;64718;52.124;6.226;2023-04-09T00:06:26;102644.03;;;8.61;100.00
76022;BME280;64718;52.124;6.226;2023-04-09T00:08:53;102644.91;;;8.57;100.00
76022;BME280;64718;52.124;6.226;2023-04-09T00:11:21;102644.06;;;8.56;100.00
76022;BME280;64718;52.124;6.226;2023-04-09T00:13:47;102645.75;;;8.59;100.00
76022;BME280;64718;52.124;6.226;2023-04-09T00:16:13;102642.31;;;8.57;100.00
76022;BME280;64718;52.124;6.226;2023-04-09T00:18:40;102639.72;;;8.55;100.00
76022;BME280;64718;52.124;6.226;2023-04-09T00:21:07;102643.19;;;8.56;100.00
76022;BME280;64718;52.124;6.226;2023-04-09T00:23:33;102649.22;;;8.58;100.00
76022;BME280;64718;52.124;6.226;2023-04-09T00:26:01;102645.78;;;8.56;100.00
76022;BME280;64718;52.124;6.226;2023-04-09T00:28:30;102638.88;;;8.55;100.00
76022;BME280;64718;52.124;6.226;2023-04-09T00:30:57;102634.53;;;8.55;100.00
76022;BME280;64718;52.124;6.226;2023-04-09T00:33:27;102637.16;;;8.54;100.00
76022;BME280;64718;52.124;6.226;2023-04-09T00:35:56;102631.97;;;8.52;100.00
76022;BME280;64718;52.124;6.226;2023-04-09T00:38:26;102626.78;;;8.54;100.00
76022;BME280;64718;52.124;6.226;2023-04-09T00:40:56;102628.50;;;8.52;100.00
76022;BME280;64718;52.124;6.226;2023-04-09T00:43:23;102626.78;;;8.52;100.00
76022;BME280;64718;52.124;6.226;2023-04-09T00:45:54;102626.78;;;8.52;100.00
76022;BME280;64718;52.124;6.226;2023-04-09T00:48:27;102626.78;;;8.54;100.00
76022;BME280;64718;52.124;6.226;2023-04-09T00:50:57;102623.31;;;8.52;100.00
76022;BME280;64718;52.124;6.226;2023-04-09T00:53:25;102624.19;;;8.52;100.00
76022;BME280;64718;52.124;6.226;2023-04-09T00:55:52;102615.53;;;8.52;100.00
76022;BME280;64718;52.124;6.226;2023-04-09T00:58:18;102614.69;;;8.50;100.00
76022;BME280;64718;52.124;6.226;2023-04-09T01:00:45;102610.38;;;8.47;100.00
76022;BME280;64718;52.124;6.226;2023-04-09T01:03:13;102615.59;;;8.46;100.00
76022;BME280;64718;52.124;6.226;2023-04-09T01:05:49;102609.50;;;8.53;100.00
76022;BME280;64718;52.124;6.226;2023-04-09T01:08:29;102605.19;;;8.50;100.00
76022;BME280;64718;52.124;6.226;2023-04-09T01:11:02;102606.94;;;8.48;100.00
76022;BME280;64718;52.124;6.226;2023-04-09T01:13:38;102606.94;;;8.45;100.00
76022;BME280;64718;52.124;6.226;2023-04-09T01:16:09;102600.88;;;8.49;100.00
76022;BME280;64718;52.124;6.226;2023-04-09T01:18:43;102598.28;;;8.51;100.00
76022;BME280;64718;52.124;6.226;2023-04-09T01:21:14;102595.69;;;8.48;100.00
76022;BME280;64718;52.124;6.226;2023-04-09T01:23:46;102600.03;;;8.46;100.00
76022;BME280;64718;52.124;6.226;2023-04-09T01:26:30;102599.19;;;8.42;100.00
76022;BME280;64718;52.124;6.226;2023-04-09T01:29:04;102604.34;;;8.47;100.00
76022;BME280;64718;52.124;6.226;2023-04-09T01:31:36;102603.47;;;8.48;100.00
76022;BME280;64718;52.124;6.226;2023-04-09T01:34:05;102606.06;;;8.46;100.00
76022;BME280;64718;52.124;6.226;2023-04-09T01:36:34;102610.44;;;8.38;100.00
76022;BME280;64718;52.124;6.226;2023-04-09T01:39:02;102607.84;;;8.41;100.00
76022;BME280;64718;52.124;6.226;2023-04-09T01:41:30;102600.06;;;8.38;100.00
76022;BME280;64718;52.124;6.226;2023-04-09T01:43:59;102597.47;;;8.41;100.00
76022;BME280;64718;52.124;6.226;2023-04-09T01:46:28;102599.16;;;8.44;100.00
76022;BME280;64718;52.124;6.226;2023-04-09T01:48:55;102601.78;;;8.41;100.00
76022;BME280;64718;52.124;6.226;2023-04-09T01:51:25;102600.94;;;8.36;100.00
76022;BME280;64718;52.124;6.226;2023-04-09T01:53:52;102603.53;;;8.36;100.00
76022;BME280;64718;52.124;6.226;2023-04-09T01:56:18;102596.59;;;8.39;100.00
76022;BME280;64718;52.124;6.226;2023-04-09T01:58:45;102598.34;;;8.37;100.00
76022;BME280;64718;52.124;6.226;2023-04-09T02:01:17;102595.75;;;8.37;100.00
76022;BME280;64718;52.124;6.226;2023-04-09T02:03:50;102598.34;;;8.37;100.00
76022;BME280;64718;52.124;6.226;2023-04-09T02:06:24;102603.53;;;8.37;100.00
76022;BME280;64718;52.124;6.226;2023-04-09T02:08:57;102593.19;;;8.34;100.00
76022;BME280;64718;52.124;6.226;2023-04-09T02:11:25;102594.91;;;8.35;100.00
76022;BME280;64718;52.124;6.226;2023-04-09T02:13:58;102597.47;;;8.32;100.00
76022;BME280;64718;52.124;6.226;2023-04-09T02:16:28;102595.75;;;8.33;100.00
76022;BME280;64718;52.124;6.226;2023-04-09T02:18:59;102590.59;;;8.34;100.00
76022;BME280;64718;52.124;6.226;2023-04-09T02:21:26;102587.97;;;8.31;100.00
76022;BME280;64718;52.124;6.226;2023-04-09T02:23:53;102587.13;;;8.34;100.00
76022;BME280;64718;52.124;6.226;2023-04-09T02:26:20;102584.53;;;8.31;100.00
76022;BME280;64718;52.124;6.226;2023-04-09T02:28:47;102587.13;;;8.28;100.00
76022;BME280;64718;52.124;6.226;2023-04-09T02:31:14;102586.25;;;8.32;100.00
76022;BME280;64718;52.124;6.226;2023-04-09T02:33:40;102580.19;;;8.31;100.00
76022;BME280;64718;52.124;6.226;2023-04-09T02:36:10;102586.25;;;8.27;100.00
76022;BME280;64718;52.124;6.226;2023-04-09T02:38:39;102586.25;;;8.30;100.00
76022;BME280;64718;52.124;6.226;2023-04-09T02:41:05;102579.34;;;8.35;100.00
76022;BME280;64718;52.124;6.226;2023-04-09T02:43:34;102580.19;;;8.31;100.00
76022;BME280;64718;52.124;6.226;2023-04-09T02:46:00;102583.66;;;8.30;100.00
76022;BME280;64718;52.124;6.226;2023-04-09T02:48:27;102581.09;;;8.25;100.00
76022;BME280;64718;52.124;6.226;2023-04-09T02:50:53;102573.31;;;8.27;100.00
76022;BME280;64718;52.124;6.226;2023-04-09T02:53:21;102567.25;;;8.30;100.00
76022;BME280;64718;52.124;6.226;2023-04-09T02:55:49;102571.56;;;8.29;100.00
76022;BME280;64718;52.124;6.226;2023-04-09T02:58:15;102569.84;;;8.28;100.00
76022;BME280;64718;52.124;6.226;2023-04-09T03:00:43;102564.66;;;8.28;100.00
76022;BME280;64718;52.124;6.226;2023-04-09T03:03:13;102566.41;;;8.24;100.00
76022;BME280;64718;52.124;6.226;2023-04-09T03:05:39;102562.97;;;8.22;100.00
76022;BME280;64718;52.124;6.226;2023-04-09T03:08:06;102564.72;;;8.17;100.00
76022;BME280;64718;52.124;6.226;2023-04-09T03:10:35;102566.47;;;8.14;100.00
76022;BME280;64718;52.124;6.226;2023-04-09T03:13:02;102568.16;;;8.18;100.00
76022;BME280;64718;52.124;6.226;2023-04-09T03:15:28;102560.38;;;8.19;100.00
76022;BME280;64718;52.124;6.226;2023-04-09T03:17:58;102558.69;;;8.15;100.00
76022;BME280;64718;52.124;6.226;2023-04-09T03:20:24;102560.41;;;8.18;100.00
76022;BME280;64718;52.124;6.226;2023-04-09T03:22:51;102560.44;;;8.12;100.00
76022;BME280;64718;52.124;6.226;2023-04-09T03:25:18;102556.97;;;8.14;100.00
76022;BME280;64718;52.124;6.226;2023-04-09T03:27:46;102554.38;;;8.11;100.00
76022;BME280;64718;52.124;6.226;2023-04-09T03:30:12;102560.41;;;8.13;100.00
76022;BME280;64718;52.124;6.226;2023-04-09T03:32:39;102550.91;;;8.12;100.00
76022;BME280;64718;52.124;6.226;2023-04-09T03:35:07;102550.91;;;8.06;100.00
76022;BME280;64718;52.124;6.226;2023-04-09T03:37:33;102554.38;;;8.05;100.00
76022;BME280;64718;52.124;6.226;2023-04-09T03:40:07;102555.25;;;8.04;100.00
76022;BME280;64718;52.124;6.226;2023-04-09T03:42:33;102551.81;;;8.01;100.00
76022;BME280;64718;52.124;6.226;2023-04-09T03:45:03;102550.94;;;8.02;100.00
76022;BME280;64718;52.124;6.226;2023-04-09T03:47:30;102554.38;;;8.04;100.00
76022;BME280;64718;52.124;6.226;2023-04-09T03:49:57;102545.75;;;8.02;100.00
76022;BME280;64718;52.124;6.226;2023-04-09T03:52:23;102550.09;;;8.00;100.00
76022;BME280;64718;52.124;6.226;2023-04-09T03:54:49;102550.94;;;8.00;100.00
76022;BME280;64718;52.124;6.226;2023-04-09T03:57:16;102548.38;;;7.97;100.00
76022;BME280;64718;52.124;6.226;2023-04-09T03:59:42;102557.00;;;7.99;100.00
76022;BME280;64718;52.124;6.226;2023-04-09T04:02:10;102549.25;;;7.93;100.00
76022;BME280;64718;52.124;6.226;2023-04-09T04:04:37;102542.31;;;7.97;100.00
76022;BME280;64718;52.124;6.226;2023-04-09T04:07:03;102546.66;;;7.91;100.00
76022;BME280;64718;52.124;6.226;2023-04-09T04:09:30;102552.72;;;7.92;100.00
76022;BME280;64718;52.124;6.226;2023-04-09T04:11:56;102542.34;;;7.92;100.00
76022;BME280;64718;52.124;6.226;2023-04-09T04:14:23;102547.56;;;7.87;100.00
76022;BME280;64718;52.124;6.226;2023-04-09T04:16:50;102551.00;;;7.88;100.00
76022;BME280;64718;52.124;6.226;2023-04-09T04:19:18;102553.59;;;7.85;100.00
76022;BME280;64718;52.124;6.226;2023-04-09T04:21:44;102545.84;;;7.79;100.00
76022;BME280;64718;52.124;6.226;2023-04-09T04:24:11;102547.59;;;7.78;100.00
76022;BME280;64718;52.124;6.226;2023-04-09T04:26:38;102550.16;;;7.80;100.00
76022;BME280;64718;52.124;6.226;2023-04-09T04:29:05;102545.88;;;7.77;100.00
76022;BME280;64718;52.124;6.226;2023-04-09T04:31:31;102545.88;;;7.76;100.00
76022;BME280;64718;52.124;6.226;2023-04-09T04:33:58;102544.16;;;7.72;100.00
76022;BME280;64718;52.124;6.226;2023-04-09T04:36:25;102551.94;;;7.69;100.00
76022;BME280;64718;52.124;6.226;2023-04-09T04:38:52;102547.63;;;7.65;100.00
76022;BME280;64718;52.124;6.226;2023-04-09T04:41:18;102547.66;;;7.57;100.00
76022;BME280;64718;52.124;6.226;2023-04-09T04:43:45;102550.25;;;7.46;100.00
76022;BME280;64718;52.124;6.226;2023-04-09T04:46:12;102554.59;;;7.34;100.00
76022;BME280;64718;52.124;6.226;2023-04-09T04:48:38;102552.88;;;7.13;100.00
76022;BME280;64718;52.124;6.226;2023-04-09T04:51:05;102560.63;;;6.88;100.00
76022;BME280;64718;52.124;6.226;2023-04-09T04:53:33;102558.03;;;6.58;100.00
76022;BME280;64718;52.124;6.226;2023-04-09T04:55:59;102561.47;;;6.54;100.00
76022;BME280;64718;52.124;6.226;2023-04-09T04:58:26;102567.47;;;6.41;100.00
76022;BME280;64718;52.124;6.226;2023-04-09T05:00:53;102566.56;;;6.35;100.00
76022;BME280;64718;52.124;6.226;2023-04-09T05:03:20;102560.50;;;6.26;100.00
76022;BME280;64718;52.124;6.226;2023-04-09T05:05:51;102567.38;;;6.16;100.00
76022;BME280;64718;52.124;6.226;2023-04-09T05:08:17;102570.81;;;6.12;100.00
76022;BME280;64718;52.124;6.226;2023-04-09T05:10:45;102569.06;;;6.08;100.00
76022;BME280;64718;52.124;6.226;2023-04-09T05:13:12;102573.31;;;5.91;100.00
76022;BME280;64718;52.124;6.226;2023-04-09T05:15:39;102558.59;;;5.84;100.00
76022;BME280;64718;52.124;6.226;2023-04-09T05:18:06;102557.69;;;5.76;100.00
76022;BME280;64718;52.124;6.226;2023-04-09T05:20:34;102561.16;;;5.79;100.00
76022;BME280;64718;52.124;6.226;2023-04-09T05:23:01;102562.84;;;5.76;100.00
76022;BME280;64718;52.124;6.226;2023-04-09T05:25:28;102558.50;;;5.71;100.00
76022;BME280;64718;52.124;6.226;2023-04-09T05:27:55;102560.31;;;5.83;100.00
76022;BME280;64718;52.124;6.226;2023-04-09T05:30:22;102565.50;;;5.83;100.00
76022;BME280;64718;52.124;6.226;2023-04-09T05:32:49;102561.22;;;5.88;100.00
76022;BME280;64718;52.124;6.226;2023-04-09T05:35:15;102556.03;;;5.88;100.00
76022;BME280;64718;52.124;6.226;2023-04-09T05:37:42;102556.91;;;5.86;100.00
76022;BME280;64718;52.124;6.226;2023-04-09T05:40:10;102560.38;;;5.91;100.00
76022;BME280;64718;52.124;6.226;2023-04-09T05:42:37;102556.97;;;5.96;100.00
76022;BME280;64718;52.124;6.226;2023-04-09T05:45:06;102563.00;;;6.00;100.00
76022;BME280;64718;52.124;6.226;2023-04-09T05:47:33;102566.47;;;6.00;100.00
76022;BME280;64718;52.124;6.226;2023-04-09T05:49:59;102561.31;;;6.05;100.00
76022;BME280;64718;52.124;6.226;2023-04-09T05:52:26;102567.47;;;6.41;100.00
76022;BME280;64718;52.124;6.226;2023-04-09T05:54:52;102561.50;;;7.25;100.00
76022;BME280;64718;52.124;6.226;2023-04-09T05:57:19;102560.44;;;8.01;100.00
76022;BME280;64718;52.124;6.226;2023-04-09T05:59:45;102562.75;;;8.64;100.00
76022;BME280;64718;52.124;6.226;2023-04-09T06:02:13;102558.75;;;9.33;99.15
76022;BME280;64718;52.124;6.226;2023-04-09T06:04:40;102557.34;;;9.81;95.36
76022;BME280;64718;52.124;6.226;2023-04-09T06:07:06;102562.22;;;10.09;92.87
76022;BME280;64718;52.124;6.226;2023-04-09T06:09:33;102560.94;;;10.45;89.80
76022;BME280;64718;52.124;6.226;2023-04-09T06:11:59;102550.56;;;10.42;89.84
76022;BME280;64718;52.124;6.226;2023-04-09T06:14:26;102559.81;;;9.95;91.58
76022;BME280;64718;52.124;6.226;2023-04-09T06:16:53;102555.84;;;10.34;89.80
76022;BME280;64718;52.124;6.226;2023-04-09T06:19:21;102554.56;;;10.64;88.14
76022;BME280;64718;52.124;6.226;2023-04-09T06:21:47;102551.97;;;10.63;87.03
76022;BME280;64718;52.124;6.226;2023-04-09T06:24:14;102560.94;;;10.45;87.38
76022;BME280;64718;52.124;6.226;2023-04-09T06:26:41;102552.63;;;10.77;86.54
76022;BME280;64718;52.124;6.226;2023-04-09T06:29:07;102561.41;;;10.70;86.09
76022;BME280;64718;52.124;6.226;2023-04-09T06:31:34;102555.50;;;11.14;84.66
76022;BME280;64718;52.124;6.226;2023-04-09T06:34:01;102556.78;;;10.89;84.56
76022;BME280;64718;52.124;6.226;2023-04-09T06:36:29;102559.03;;;11.12;83.73
76022;BME280;64718;52.124;6.226;2023-04-09T06:38:55;102553.06;;;11.51;81.54
76022;BME280;64718;52.124;6.226;2023-04-09T06:41:23;102558.28;;;11.51;82.57
76022;BME280;64718;52.124;6.226;2023-04-09T06:43:50;102563.16;;;11.71;80.67
76022;BME280;64718;52.124;6.226;2023-04-09T06:46:18;102571.38;;;11.96;78.11
76022;BME280;64718;52.124;6.226;2023-04-09T06:48:45;102565.03;;;12.08;78.78
76022;BME280;64718;52.124;6.226;2023-04-09T06:51:12;102564.22;;;12.04;78.87
76022;BME280;64718;52.124;6.226;2023-04-09T06:53:40;102564.03;;;12.15;76.82
76022;BME280;64718;52.124;6.226;2023-04-09T06:56:07;102566.00;;;12.02;79.02
76022;BME280;64718;52.124;6.226;2023-04-09T06:58:33;102562.53;;;12.43;76.75
76022;BME280;64718;52.124;6.226;2023-04-09T07:01:00;102565.31;;;11.94;77.80
76022;BME280;64718;52.124;6.226;2023-04-09T07:03:27;102566.63;;;12.16;77.37
76022;BME280;64718;52.124;6.226;2023-04-09T07:05:54;102563.09;;;12.19;75.67
76022;BME280;64718;52.124;6.226;2023-04-09T07:08:21;102563.75;;;12.65;75.28
76022;BME280;64718;52.124;6.226;2023-04-09T07:10:49;102558.31;;;13.10;75.13
76022;BME280;64718;52.124;6.226;2023-04-09T07:13:16;102551.72;;;13.31;72.40
76022;BME280;64718;52.124;6.226;2023-04-09T07:15:42;102557.78;;;13.64;72.13
76022;BME280;64718;52.124;6.226;2023-04-09T07:18:09;102555.28;;;12.93;73.86
76022;BME280;64718;52.124;6.226;2023-04-09T07:20:36;102555.50;;;13.19;72.08
76022;BME280;64718;52.124;6.226;2023-04-09T07:23:02;102564.50;;;13.42;70.75
76022;BME280;64718;52.124;6.226;2023-04-09T07:25:29;102565.19;;;13.14;72.56
76022;BME280;64718;52.124;6.226;2023-04-09T07:27:56;102561.53;;;13.55;71.21
76022;BME280;64718;52.124;6.226;2023-04-09T07:30:23;102561.81;;;13.09;72.30
76022;BME280;64718;52.124;6.226;2023-04-09T07:32:53;102560.50;;;13.61;71.12
76022;BME280;64718;52.124;6.226;2023-04-09T07:35:21;102562.44;;;13.20;72.59
76022;BME280;64718;52.124;6.226;2023-04-09T07:37:47;102560.19;;;14.03;69.38
76022;BME280;64718;52.124;6.226;2023-04-09T07:40:14;102562.50;;;14.43;68.34
76022;BME280;64718;52.124;6.226;2023-04-09T07:42:40;102566.38;;;14.00;67.66
76022;BME280;64718;52.124;6.226;2023-04-09T07:45:09;102553.97;;;14.07;67.67
76022;BME280;64718;52.124;6.226;2023-04-09T07:47:36;102559.38;;;14.01;68.81
76022;BME280;64718;52.124;6.226;2023-04-09T07:50:03;102557.38;;;14.38;66.25
76022;BME280;64718;52.124;6.226;2023-04-09T07:52:30;102562.31;;;15.03;65.58
76022;BME280;64718;52.124;6.226;2023-04-09T07:55:00;102559.53;;;14.55;64.22
76022;BME280;64718;52.124;6.226;2023-04-09T07:57:30;102561.63;;;15.23;64.96
76022;BME280;64718;52.124;6.226;2023-04-09T07:59:59;102561.63;;;15.23;63.87
76022;BME280;64718;52.124;6.226;2023-04-09T08:02:27;102563.88;;;14.82;62.57
76022;BME280;64718;52.124;6.226;2023-04-09T08:04:55;102564.03;;;14.20;65.59
76022;BME280;64718;52.124;6.226;2023-04-09T08:07:22;102567.94;;;14.65;63.90
76022;BME280;64718;52.124;6.226;2023-04-09T08:09:48;102570.75;;;14.59;65.27
76022;BME280;64718;52.124;6.226;2023-04-09T08:12:15;102576.63;;;13.77;67.29
76022;BME280;64718;52.124;6.226;2023-04-09T08:14:41;102579.56;;;13.65;70.28
76022;BME280;64718;52.124;6.226;2023-04-09T08:17:09;102580.66;;;13.23;70.18
76022;BME280;64718;52.124;6.226;2023-04-09T08:19:37;102577.66;;;13.71;70.03
76022;BME280;64718;52.124;6.226;2023-04-09T08:22:04;102572.72;;;13.91;68.32
76022;BME280;64718;52.124;6.226;2023-04-09T08:24:30;102575.41;;;13.57;70.78
76022;BME280;64718;52.124;6.226;2023-04-09T08:26:57;102570.56;;;14.06;68.76
76022;BME280;64718;52.124;6.226;2023-04-09T08:29:23;102566.97;;;14.38;67.06
76022;BME280;64718;52.124;6.226;2023-04-09T08:31:50;102569.16;;;14.81;67.20
76022;BME280;64718;52.124;6.226;2023-04-09T08:34:16;102562.91;;;14.85;61.84
76022;BME280;64718;52.124;6.226;2023-04-09T08:36:46;102557.88;;;15.05;59.03
76022;BME280;64718;52.124;6.226;2023-04-09T08:39:14;102555.31;;;15.04;60.24
76022;BME280;64718;52.124;6.226;2023-04-09T08:41:41;102560.84;;;15.21;59.94
76022;BME280;64718;52.124;6.226;2023-04-09T08:44:09;102558.63;;;15.09;59.65
76022;BME280;64718;52.124;6.226;2023-04-09T08:46:38;102565.06;;;15.25;58.98
76022;BME280;64718;52.124;6.226;2023-04-09T08:49:07;102564.88;;;15.05;59.24
76022;BME280;64718;52.124;6.226;2023-04-09T08:51:34;102568.69;;;15.21;53.68
76022;BME280;64718;52.124;6.226;2023-04-09T08:54:02;102562.56;;;14.96;55.93
76022;BME280;64718;52.124;6.226;2023-04-09T08:56:29;102565.28;;;14.66;56.00
76022;BME280;64718;52.124;6.226;2023-04-09T08:58:55;102571.50;;;14.33;58.69
76022;BME280;64718;52.124;6.226;2023-04-09T09:01:23;102562.84;;;14.86;58.44
76022;BME280;64718;52.124;6.226;2023-04-09T09:03:57;102564.31;;;15.22;57.83
76022;BME280;64718;52.124;6.226;2023-04-09T09:06:25;102559.59;;;15.56;58.23
76022;BME280;64718;52.124;6.226;2023-04-09T09:09:00;102555.91;;;15.37;58.00
76022;BME280;64718;52.124;6.226;2023-04-09T09:11:29;102548.63;;;14.94;57.56
76022;BME280;64718;52.124;6.226;2023-04-09T09:14:02;102539.78;;;14.98;56.89
76022;BME280;64718;52.124;6.226;2023-04-09T09:16:29;102545.88;;;14.44;58.39
76022;BME280;64718;52.124;6.226;2023-04-09T09:18:57;102550.72;;;14.84;57.21
76022;BME280;64718;52.124;6.226;2023-04-09T09:21:26;102544.97;;;14.99;57.27
76022;BME280;64718;52.124;6.226;2023-04-09T09:23:54;102540.19;;;15.12;55.82
76022;BME280;64718;52.124;6.226;2023-04-09T09:26:22;102548.44;;;15.00;59.35
76022;BME280;64718;52.124;6.226;2023-04-09T09:28:51;102542.31;;;15.26;56.84
76022;BME280;64718;52.124;6.226;2023-04-09T09:31:18;102546.84;;;14.69;59.73
76022;BME280;64718;52.124;6.226;2023-04-09T09:33:46;102538.06;;;14.42;58.71
76022;BME280;64718;52.124;6.226;2023-04-09T09:36:14;102538.31;;;14.63;62.21
76022;BME280;64718;52.124;6.226;2023-04-09T09:38:57;102531.94;;;14.42;59.61
76022;BME280;64718;52.124;6.226;2023-04-09T09:41:26;102531.31;;;14.63;64.58
76022;BME280;64718;52.124;6.226;2023-04-09T09:43:55;102533.81;;;14.38;61.23
76022;BME280;64718;52.124;6.226;2023-04-09T09:46:23;102527.19;;;14.27;60.58
76022;BME280;64718;52.124;6.226;2023-04-09T09:48:50;102530.22;;;13.83;58.96
76022;BME280;64718;52.124;6.226;2023-04-09T09:51:17;102536.34;;;13.82;60.79
76022;BME280;64718;52.124;6.226;2023-04-09T09:53:50;102532.84;;;13.52;58.70
76022;BME280;64718;52.124;6.226;2023-04-09T09:56:18;102539.31;;;13.39;61.62
76022;BME280;64718;52.124;6.226;2023-04-09T09:58:51;102530.44;;;13.45;63.31
76022;BME280;64718;52.124;6.226;2023-04-09T10:01:27;102530.41;;;13.77;62.09
76022;BME280;64718;52.124;6.226;2023-04-09T10:03:59;102525.94;;;13.81;58.15
76022;BME280;64718;52.124;6.226;2023-04-09T10:06:26;102520.84;;;13.76;57.93
76022;BME280;64718;52.124;6.226;2023-04-09T10:08:56;102525.38;;;14.01;59.09
76022;BME280;64718;52.124;6.226;2023-04-09T10:11:26;102520.81;;;13.47;59.56
76022;BME280;64718;52.124;6.226;2023-04-09T10:13:55;102518.31;;;13.73;62.37
76022;BME280;64718;52.124;6.226;2023-04-09T10:16:23;102522.31;;;13.85;57.70
76022;BME280;64718;52.124;6.226;2023-04-09T10:18:51;102510.53;;;14.29;55.91
76022;BME280;64718;52.124;6.226;2023-04-09T10:21:27;102512.53;;;14.50;56.12
76022;BME280;64718;52.124;6.226;2023-04-09T10:23:57;102510.00;;;14.74;52.66
76022;BME280;64718;52.124;6.226;2023-04-09T10:26:24;102509.81;;;14.80;54.06
76022;BME280;64718;52.124;6.226;2023-04-09T10:29:12;102504.19;;;14.91;53.86
76022;BME280;64718;52.124;6.226;2023-04-09T10:31:51;102499.06;;;14.87;53.04
76022;BME280;64718;52.124;6.226;2023-04-09T10:34:20;102491.56;;;15.03;53.46
76022;BME280;64718;52.124;6.226;2023-04-09T10:36:50;102489.22;;;14.94;51.16
76022;BME280;64718;52.124;6.226;2023-04-09T10:39:18;102491.78;;;15.22;53.02
76022;BME280;64718;52.124;6.226;2023-04-09T10:41:45;102489.44;;;14.88;55.37
76022;BME280;64718;52.124;6.226;2023-04-09T10:44:24;102490.78;;;14.75;54.39
76022;BME280;64718;52.124;6.226;2023-04-09T10:46:52;102491.47;;;14.53;52.72
76022;BME280;64718;52.124;6.226;2023-04-09T10:49:21;102473.81;;;14.85;55.09
76022;BME280;64718;52.124;6.226;2023-04-09T10:51:50;102475.16;;;14.97;51.85
76022;BME280;64718;52.124;6.226;2023-04-09T10:54:39;102473.03;;;14.83;50.05
76022;BME280;64718;52.124;6.226;2023-04-09T10:57:16;102474.03;;;15.05;52.95
76022;BME280;64718;52.124;6.226;2023-04-09T10:59:45;102483.06;;;15.22;51.32
76022;BME280;64718;52.124;6.226;2023-04-09T11:02:31;102477.66;;;15.49;51.66
76022;BME280;64718;52.124;6.226;2023-04-09T11:05:13;102475.88;;;15.27;50.30
76022;BME280;64718;52.124;6.226;2023-04-09T11:07:46;102475.19;;;15.22;52.19
76022;BME280;64718;52.124;6.226;2023-04-09T11:10:14;102471.91;;;15.40;50.94
76022;BME280;64718;52.124;6.226;2023-04-09T11:12:41;102469.38;;;15.13;49.88
76022;BME280;64718;52.124;6.226;2023-04-09T11:15:14;102475.25;;;15.20;52.64
76022;BME280;64718;52.124;6.226;2023-04-09T11:17:41;102466.00;;;15.10;50.30
76022;BME280;64718;52.124;6.226;2023-04-09T11:20:10;102469.50;;;14.84;50.39
76022;BME280;64718;52.124;6.226;2023-04-09T11:22:37;102460.34;;;14.71;53.59
76022;BME280;64718;52.124;6.226;2023-04-09T11:25:04;102461.84;;;15.03;52.07
76022;BME280;64718;52.124;6.226;2023-04-09T11:27:36;102463.47;;;15.07;50.38
76022;BME280;64718;52.124;6.226;2023-04-09T11:30:03;102454.53;;;14.87;51.33
76022;BME280;64718;52.124;6.226;2023-04-09T11:32:30;102449.22;;;14.64;52.36
76022;BME280;64718;52.124;6.226;2023-04-09T11:35:00;102454.34;;;14.67;51.22
76022;BME280;64718;52.124;6.226;2023-04-09T11:37:29;102440.31;;;14.70;51.30
76022;BME280;64718;52.124;6.226;2023-04-09T11:40:14;102442.13;;;15.17;53.36
76022;BME280;64718;52.124;6.226;2023-04-09T11:42:42;102443.84;;;15.42;50.82
76022;BME280;64718;52.124;6.226;2023-04-09T11:45:10;102450.91;;;15.16;48.83
76022;BME280;64718;52.124;6.226;2023-04-09T11:47:39;102437.63;;;15.21;51.07
76022;BME280;64718;52.124;6.226;2023-04-09T11:50:07;102437.63;;;15.44;49.72
76022;BME280;64718;52.124;6.226;2023-04-09T11:52:36;102438.09;;;15.56;49.88
76022;BME280;64718;52.124;6.226;2023-04-09T11:55:03;102438.84;;;15.82;49.50
76022;BME280;64718;52.124;6.226;2023-04-09T11:57:40;102441.53;;;15.81;52.80
76022;BME280;64718;52.124;6.226;2023-04-09T12:00:08;102432.69;;;15.84;48.45
76022;BME280;64718;52.124;6.226;2023-04-09T12:02:41;102435.25;;;15.38;49.55
76022;BME280;64718;52.124;6.226;2023-04-09T12:05:09;102434.28;;;15.17;55.21
76022;BME280;64718;52.124;6.226;2023-04-09T12:07:38;102442.53;;;15.07;50.98
76022;BME280;64718;52.124;6.226;2023-04-09T12:10:05;102439.66;;;14.88;49.68
76022;BME280;64718;52.124;6.226;2023-04-09T12:12:39;102441.97;;;15.45;48.60
76022;BME280;64718;52.124;6.226;2023-04-09T12:15:09;102435.94;;;15.90;49.16
76022;BME280;64718;52.124;6.226;2023-04-09T12:17:37;102429.63;;;16.38;48.24
76022;BME280;64718;52.124;6.226;2023-04-09T12:20:05;102431.63;;;16.53;46.15
76022;BME280;64718;52.124;6.226;2023-04-09T12:22:45;102432.03;;;16.64;47.20
76022;BME280;64718;52.124;6.226;2023-04-09T12:25:11;102443.53;;;16.20;50.76
76022;BME280;64718;52.124;6.226;2023-04-09T12:27:41;102434.53;;;16.25;48.32
76022;BME280;64718;52.124;6.226;2023-04-09T12:30:08;102427.88;;;16.17;45.43
76022;BME280;64718;52.124;6.226;2023-04-09T12:32:35;102426.03;;;16.40;46.25
76022;BME280;64718;52.124;6.226;2023-04-09T12:35:03;102426.34;;;15.89;46.85
76022;BME280;64718;52.124;6.226;2023-04-09T12:37:30;102422.97;;;15.15;47.99
76022;BME280;64718;52.124;6.226;2023-04-09T12:40:00;102426.41;;;15.17;50.05
76022;BME280;64718;52.124;6.226;2023-04-09T12:42:27;102418.78;;;15.58;48.15
76022;BME280;64718;52.124;6.226;2023-04-09T12:45:00;102413.59;;;15.80;50.10
76022;BME280;64718;52.124;6.226;2023-04-09T12:47:26;102410.91;;;16.03;49.73
76022;BME280;64718;52.124;6.226;2023-04-09T12:49:53;102418.72;;;15.60;47.37
76022;BME280;64718;52.124;6.226;2023-04-09T12:52:20;102408.34;;;15.80;47.11
76022;BME280;64718;52.124;6.226;2023-04-09T12:54:47;102410.13;;;16.23;47.54
76022;BME280;64718;52.124;6.226;2023-04-09T12:57:15;102392.47;;;16.47;44.95